createdAt,value
2022-12-22T00:00:12.100Z,99698.97
2022-12-22T00:01:29.614Z,99701.66
2022-12-22T00:02:41.748Z,99692.25
2022-12-22T00:03:53.665Z,99687.09
2022-12-22T00:05:05.558Z,99690.75
2022-12-22T00:06:17.561Z,99684.66
2022-12-22T00:07:29.554Z,99695.13
2022-12-22T00:08:29.582Z,99698.56
2022-12-22T00:09:28.366Z,99685.03
2022-12-22T00:10:28.590Z,99689.22
2022-12-22T00:11:27.319Z,99699.28
2022-12-22T00:12:27.558Z,99690.94
2022-12-22T00:13:26.074Z,99702.47
2022-12-22T00:14:24.541Z,99693.53
2022-12-22T00:15:24.398Z,99702.41
2022-12-22T00:16:23.603Z,99700.56
2022-12-22T00:17:24.944Z,99693.53
2022-12-22T00:18:23.534Z,99703.34
2022-12-22T00:19:22.065Z,99704.19
2022-12-22T00:20:20.547Z,99695.22
2022-12-22T00:21:19.003Z,99694.13
2022-12-22T00:22:17.513Z,99705.09
2022-12-22T00:23:16.067Z,99695.88
2022-12-22T00:24:15.522Z,99697.06
2022-12-22T00:25:14.178Z,99690.75
2022-12-22T00:26:13.539Z,99694.06
2022-12-22T00:27:12.253Z,99701.22
2022-12-22T00:28:11.517Z,99704.84
2022-12-22T00:29:10.107Z,99693.72
2022-12-22T00:30:10.544Z,99693.53
2022-12-22T00:31:09.990Z,99686.66
2022-12-22T00:32:08.539Z,99696.53
2022-12-22T00:33:07.464Z,99694.06
2022-12-22T00:34:06.512Z,99696.69
2022-12-22T00:35:07.345Z,99690.69
2022-12-22T00:36:06.498Z,99689.53
2022-12-22T00:37:18.749Z,99695.91
2022-12-22T00:38:30.510Z,99674.00
2022-12-22T00:39:45.499Z,99676.38
2022-12-22T00:41:01.512Z,99687.72
2022-12-22T00:42:14.503Z,99688.41
2022-12-22T00:43:13.542Z,99683.28
2022-12-22T00:44:12.228Z,99674.03
2022-12-22T00:45:11.537Z,99679.41
2022-12-22T00:46:10.323Z,99668.06
2022-12-22T00:47:10.506Z,99680.56
2022-12-22T00:48:08.971Z,99672.84
2022-12-22T00:49:09.537Z,99673.50
2022-12-22T00:50:11.215Z,99679.63
2022-12-22T00:51:10.556Z,99668.81
2022-12-22T00:52:10.503Z,99671.81
2022-12-22T00:53:09.500Z,99667.50
2022-12-22T00:54:08.480Z,99669.50
2022-12-22T00:55:07.505Z,99662.25
2022-12-22T00:56:06.077Z,99665.50
2022-12-22T00:57:05.516Z,99668.06
2022-12-22T00:58:05.307Z,99669.78
2022-12-22T00:59:04.493Z,99667.44
2022-12-22T01:00:03.034Z,99661.88
2022-12-22T01:01:02.538Z,99658.66
2022-12-22T01:02:01.371Z,99668.59
2022-12-22T01:03:00.631Z,99655.53
2022-12-22T01:03:59.030Z,99661.88
2022-12-22T01:04:57.502Z,99663.28
2022-12-22T01:05:56.093Z,99668.34
2022-12-22T01:06:57.499Z,99673.25
2022-12-22T01:07:56.104Z,99670.16
2022-12-22T01:08:55.466Z,99673.09
2022-12-22T01:09:53.957Z,99661.75
2022-12-22T01:10:52.478Z,99668.66
2022-12-22T01:11:52.220Z,99655.28
2022-12-22T01:12:52.529Z,99666.53
2022-12-22T01:13:52.213Z,99669.38
2022-12-22T01:14:51.491Z,99678.28
2022-12-22T01:15:51.950Z,99678.06
2022-12-22T01:16:50.500Z,99664.69
2022-12-22T01:17:48.945Z,99681.41
2022-12-22T01:18:47.529Z,99666.81
2022-12-22T01:19:45.931Z,99665.97
2022-12-22T01:20:44.463Z,99662.53
2022-12-22T01:21:43.849Z,99665.50
2022-12-22T01:22:46.499Z,99663.34
2022-12-22T01:23:45.051Z,99660.63
2022-12-22T01:24:44.488Z,99667.44
2022-12-22T01:25:45.463Z,99643.25
2022-12-22T01:26:45.448Z,99658.34
2022-12-22T01:27:44.230Z,99658.38
2022-12-22T01:28:43.461Z,99654.81
2022-12-22T01:29:41.891Z,99653.19
2022-12-22T01:30:40.532Z,99652.47
2022-12-22T01:31:44.224Z,99647.69
2022-12-22T01:32:50.435Z,99664.03
2022-12-22T01:33:43.181Z,99665.59
2022-12-22T01:34:49.444Z,99661.00
2022-12-22T01:35:54.507Z,99661.97
2022-12-22T01:37:06.519Z,99656.25
2022-12-22T01:38:18.454Z,99656.25
2022-12-22T01:39:30.452Z,99658.41
2022-12-22T01:40:50.443Z,99654.81
2022-12-22T01:41:49.507Z,99649.91
2022-12-22T01:42:48.237Z,99639.19
2022-12-22T01:43:51.456Z,99648.97
2022-12-22T01:44:50.211Z,99645.78
2022-12-22T01:45:54.448Z,99639.19
2022-12-22T01:47:18.438Z,99640.13
2022-12-22T01:48:30.438Z,99643.78
2022-12-22T01:49:51.448Z,99641.56
2022-12-22T01:51:06.425Z,99648.06
2022-12-22T01:52:18.457Z,99639.41
2022-12-22T01:53:30.428Z,99644.53
2022-12-22T01:54:44.425Z,99653.03
2022-12-22T01:55:58.442Z,99648.16
2022-12-22T01:57:11.429Z,99647.78
2022-12-22T01:58:10.446Z,99645.00
2022-12-22T01:59:15.056Z,99646.72
2022-12-22T02:00:14.412Z,99634.03
2022-12-22T02:01:12.926Z,99652.47
2022-12-22T02:02:11.642Z,99643.78
2022-12-22T02:03:10.393Z,99645.66
2022-12-22T02:04:09.438Z,99636.44
2022-12-22T02:05:11.064Z,99653.78
2022-12-22T02:06:59.823Z,99642.88
2022-12-22T02:08:32.841Z,99638.09
2022-12-22T02:10:08.466Z,99636.38
2022-12-22T02:11:41.326Z,99639.69
2022-12-22T02:13:00.417Z,99625.56
2022-12-22T02:14:49.808Z,99631.25
2022-12-22T02:16:11.495Z,99626.13
2022-12-22T02:18:06.843Z,99635.81
2022-12-22T02:19:19.391Z,99638.66
2022-12-22T02:21:00.786Z,99640.97
2022-12-22T02:22:33.433Z,99640.91
2022-12-22T02:24:15.126Z,99638.22
2022-12-22T02:25:30.415Z,99634.88
2022-12-22T02:26:53.030Z,99642.34
2022-12-22T02:27:53.438Z,99621.63
2022-12-22T02:28:51.902Z,99638.47
2022-12-22T02:30:00.420Z,99636.78
2022-12-22T02:31:00.344Z,99639.00
2022-12-22T02:32:02.388Z,99638.47
2022-12-22T02:33:10.448Z,99625.22
2022-12-22T02:34:22.405Z,99637.72
2022-12-22T02:35:46.387Z,99632.03
2022-12-22T02:37:24.385Z,99625.09
2022-12-22T02:39:12.390Z,99635.53
2022-12-22T02:40:23.072Z,99643.59
2022-12-22T02:42:09.398Z,99643.13
2022-12-22T02:43:53.019Z,99639.13
2022-12-22T02:45:09.416Z,99644.16
2022-12-22T02:46:21.377Z,99634.47
2022-12-22T02:48:03.390Z,99654.66
2022-12-22T02:49:26.034Z,99649.31
2022-12-22T02:50:56.379Z,99652.44
2022-12-22T02:51:59.911Z,99637.78
2022-12-22T02:53:01.372Z,99641.31
2022-12-22T02:53:59.975Z,99645.72
2022-12-22T02:55:00.390Z,99639.41
2022-12-22T02:56:06.399Z,99640.19
2022-12-22T02:56:59.968Z,99623.06
2022-12-22T02:58:06.374Z,99640.91
2022-12-22T02:58:58.772Z,99643.03
2022-12-22T03:00:05.426Z,99637.69
2022-12-22T03:00:58.491Z,99639.81
2022-12-22T03:01:57.484Z,99639.22
2022-12-22T03:02:50.393Z,99644.31
2022-12-22T03:03:43.215Z,99632.81
2022-12-22T03:04:42.358Z,99634.06
2022-12-22T03:05:34.909Z,99625.50
2022-12-22T03:06:27.545Z,99632.16
2022-12-22T03:07:26.420Z,99630.66
2022-12-22T03:08:18.817Z,99620.69
2022-12-22T03:09:11.712Z,99622.47
2022-12-22T03:10:10.352Z,99618.09
2022-12-22T03:11:03.145Z,99619.31
2022-12-22T03:11:55.735Z,99617.97
2022-12-22T03:12:54.386Z,99610.81
2022-12-22T03:13:47.223Z,99611.56
2022-12-22T03:14:39.901Z,99616.19
2022-12-22T03:15:39.378Z,99620.31
2022-12-22T03:16:32.037Z,99595.94
2022-12-22T03:17:24.592Z,99618.63
2022-12-22T03:18:32.332Z,99614.25
2022-12-22T03:19:24.969Z,99613.16
2022-12-22T03:20:17.447Z,99622.91
2022-12-22T03:21:17.337Z,99623.75
2022-12-22T03:22:09.830Z,99616.06
2022-12-22T03:23:02.666Z,99613.50
2022-12-22T03:24:01.349Z,99612.00
2022-12-22T03:24:54.038Z,99617.75
2022-12-22T03:25:46.764Z,99617.44
2022-12-22T03:26:27.360Z,99610.50
2022-12-22T03:27:01.393Z,99592.47
2022-12-22T03:27:35.083Z,99612.22
2022-12-22T03:28:16.348Z,99606.13
2022-12-22T03:28:50.443Z,99603.13
2022-12-22T03:29:30.368Z,99613.25
2022-12-22T03:30:11.578Z,99621.53
2022-12-22T03:30:51.322Z,99623.31
2022-12-22T03:31:32.483Z,99619.19
2022-12-22T03:32:12.340Z,99607.31
2022-12-22T03:32:52.392Z,99611.16
2022-12-22T03:33:32.355Z,99613.72
2022-12-22T03:34:13.561Z,99611.78
2022-12-22T03:34:53.352Z,99609.53
2022-12-22T03:35:34.412Z,99621.09
2022-12-22T03:36:16.317Z,99622.03
2022-12-22T03:36:56.385Z,99618.50
2022-12-22T03:37:36.332Z,99621.38
2022-12-22T03:38:16.524Z,99618.47
2022-12-22T03:38:56.321Z,99600.13
2022-12-22T03:39:36.406Z,99612.81
2022-12-22T03:40:17.346Z,99614.06
2022-12-22T03:40:58.386Z,99594.25
2022-12-22T03:41:57.339Z,99591.66
2022-12-22T03:42:55.883Z,99597.41
2022-12-22T03:43:55.328Z,99587.34
2022-12-22T03:44:53.891Z,99599.50
2022-12-22T03:45:53.400Z,99589.25
2022-12-22T03:46:34.422Z,99597.34
2022-12-22T03:47:14.356Z,99593.69
2022-12-22T03:47:54.367Z,99597.13
2022-12-22T03:48:34.342Z,99589.97
2022-12-22T03:49:14.396Z,99596.22
2022-12-22T03:49:54.309Z,99591.94
2022-12-22T03:50:34.379Z,99594.50
2022-12-22T03:51:16.301Z,99604.78
2022-12-22T03:51:57.395Z,99595.81
2022-12-22T03:52:37.318Z,99599.16
2022-12-22T03:53:17.366Z,99579.59
2022-12-22T03:53:57.302Z,99591.31
2022-12-22T03:54:37.364Z,99582.31
2022-12-22T03:55:24.307Z,99589.59
2022-12-22T03:56:01.284Z,99589.38
2022-12-22T03:56:46.315Z,99566.94
2022-12-22T03:57:26.403Z,99586.81
2022-12-22T03:58:06.298Z,99584.88
2022-12-22T03:58:46.536Z,99590.63
2022-12-22T03:59:27.323Z,99592.38
2022-12-22T04:00:07.378Z,99587.72
2022-12-22T04:00:48.329Z,99576.59
2022-12-22T04:01:28.461Z,99576.38
2022-12-22T04:02:08.428Z,99572.97
2022-12-22T04:02:48.535Z,99571.03
2022-12-22T04:03:28.322Z,99589.44
2022-12-22T04:04:08.365Z,99584.16
2022-12-22T04:04:48.301Z,99590.41
2022-12-22T04:05:28.366Z,99590.50
2022-12-22T04:06:09.332Z,99584.63
2022-12-22T04:06:50.403Z,99597.59
2022-12-22T04:07:30.353Z,99595.72
2022-12-22T04:08:11.384Z,99592.31
2022-12-22T04:08:52.366Z,99592.44
2022-12-22T04:09:32.384Z,99591.84
2022-12-22T04:10:32.323Z,99590.59
2022-12-22T04:11:31.116Z,99584.56
2022-12-22T04:12:31.316Z,99573.91
2022-12-22T04:13:11.345Z,99572.06
2022-12-22T04:13:51.293Z,99570.16
2022-12-22T04:14:34.411Z,99575.19
2022-12-22T04:15:17.278Z,99570.69
2022-12-22T04:15:57.410Z,99579.91
2022-12-22T04:16:38.303Z,99577.94
2022-12-22T04:17:18.397Z,99573.56
2022-12-22T04:17:59.317Z,99574.31
2022-12-22T04:18:39.380Z,99566.41
2022-12-22T04:19:19.298Z,99565.78
2022-12-22T04:19:59.340Z,99562.13
2022-12-22T04:20:40.265Z,99575.78
2022-12-22T04:21:20.338Z,99576.88
2022-12-22T04:22:01.326Z,99578.59
2022-12-22T04:22:41.345Z,99565.53
2022-12-22T04:23:21.291Z,99565.34
2022-12-22T04:24:01.316Z,99570.91
2022-12-22T04:24:42.269Z,99568.94
2022-12-22T04:25:22.383Z,99573.00
2022-12-22T04:26:02.275Z,99561.03
2022-12-22T04:26:42.439Z,99569.94
2022-12-22T04:27:22.267Z,99560.94
2022-12-22T04:28:02.333Z,99557.78
2022-12-22T04:28:42.319Z,99554.84
2022-12-22T04:29:23.446Z,99563.66
2022-12-22T04:30:03.248Z,99563.22
2022-12-22T04:30:43.342Z,99552.91
2022-12-22T04:31:23.316Z,99549.03
2022-12-22T04:32:03.457Z,99557.78
2022-12-22T04:32:44.278Z,99562.22
2022-12-22T04:33:24.358Z,99554.78
2022-12-22T04:34:05.282Z,99547.34
2022-12-22T04:34:45.349Z,99552.69
2022-12-22T04:35:25.258Z,99543.63
2022-12-22T04:36:05.306Z,99552.03
2022-12-22T04:36:45.303Z,99556.34
2022-12-22T04:37:26.424Z,99551.66
2022-12-22T04:38:06.304Z,99557.78
2022-12-22T04:38:46.376Z,99550.22
2022-12-22T04:39:27.313Z,99549.72
2022-12-22T04:40:08.745Z,99550.47
2022-12-22T04:40:49.256Z,99549.03
2022-12-22T04:41:29.353Z,99547.53
2022-12-22T04:42:09.243Z,99546.69
2022-12-22T04:42:49.303Z,99550.53
2022-12-22T04:43:30.247Z,99552.44
2022-12-22T04:44:10.447Z,99548.81
2022-12-22T04:44:50.261Z,99548.41
2022-12-22T04:45:30.376Z,99553.22
2022-12-22T04:46:11.326Z,99544.94
2022-12-22T04:46:51.322Z,99548.38
2022-12-22T04:47:31.251Z,99553.31
2022-12-22T04:48:12.363Z,99552.44
2022-12-22T04:48:57.883Z,99543.69
2022-12-22T04:49:40.351Z,99554.69
2022-12-22T04:50:20.345Z,99539.44
2022-12-22T04:51:03.360Z,99545.19
2022-12-22T04:51:43.240Z,99530.44
2022-12-22T04:52:23.327Z,99541.66
2022-12-22T04:53:04.235Z,99549.94
2022-12-22T04:53:38.035Z,99544.84
2022-12-22T04:54:25.255Z,99553.72
2022-12-22T04:54:59.003Z,99561.63
2022-12-22T04:55:39.246Z,99541.69
2022-12-22T04:56:15.385Z,99565.63
2022-12-22T04:56:50.533Z,99557.78
2022-12-22T04:57:34.334Z,99545.50
2022-12-22T04:58:12.353Z,99552.56
2022-12-22T04:58:46.071Z,99556.94
2022-12-22T04:59:27.254Z,99544.53
2022-12-22T05:00:01.375Z,99548.91
2022-12-22T05:00:34.975Z,99545.38
2022-12-22T05:01:19.317Z,99546.16
2022-12-22T05:01:53.341Z,99550.94
2022-12-22T05:02:27.014Z,99546.88
2022-12-22T05:03:07.327Z,99538.72
2022-12-22T05:03:41.476Z,99548.38
2022-12-22T05:04:18.762Z,99545.31
2022-12-22T05:05:03.239Z,99546.94
2022-12-22T05:05:37.351Z,99539.38
2022-12-22T05:06:11.327Z,99542.09
2022-12-22T05:06:52.251Z,99538.44
2022-12-22T05:07:26.283Z,99539.56
2022-12-22T05:08:00.188Z,99539.03
2022-12-22T05:08:41.242Z,99548.13
2022-12-22T05:09:17.574Z,99545.97
2022-12-22T05:09:52.001Z,99534.13
2022-12-22T05:10:33.238Z,99545.75
2022-12-22T05:11:07.307Z,99540.16
2022-12-22T05:11:41.977Z,99538.44
2022-12-22T05:12:41.242Z,99534.78
2022-12-22T05:13:15.282Z,99521.06
2022-12-22T05:13:48.923Z,99530.25
2022-12-22T05:14:29.205Z,99520.72
2022-12-22T05:15:03.325Z,99532.16
2022-12-22T05:15:37.455Z,99517.19
2022-12-22T05:16:23.239Z,99526.31
2022-12-22T05:16:57.467Z,99533.38
2022-12-22T05:17:31.432Z,99528.47
2022-12-22T05:18:12.243Z,99528.75
2022-12-22T05:18:47.680Z,99529.38
2022-12-22T05:19:24.976Z,99531.97
2022-12-22T05:20:10.244Z,99526.84
2022-12-22T05:20:44.278Z,99530.59
2022-12-22T05:21:21.455Z,99532.56
2022-12-22T05:22:01.199Z,99521.00
2022-12-22T05:22:35.305Z,99521.38
2022-12-22T05:23:08.927Z,99525.16
2022-12-22T05:23:50.256Z,99532.25
2022-12-22T05:24:24.294Z,99520.69
2022-12-22T05:24:57.922Z,99519.59
2022-12-22T05:25:39.203Z,99516.66
2022-12-22T05:26:14.541Z,99513.97
2022-12-22T05:26:48.904Z,99516.31
2022-12-22T05:27:29.204Z,99526.91
2022-12-22T05:28:03.342Z,99523.72
2022-12-22T05:28:37.041Z,99519.06
2022-12-22T05:29:17.218Z,99528.72
2022-12-22T05:29:51.297Z,99527.41
2022-12-22T05:30:26.437Z,99521.53
2022-12-22T05:31:17.324Z,99517.88
2022-12-22T05:31:51.301Z,99529.69
2022-12-22T05:32:25.010Z,99531.78
2022-12-22T05:33:06.226Z,99528.59
2022-12-22T05:33:40.273Z,99515.94
2022-12-22T05:34:13.926Z,99534.34
2022-12-22T05:34:55.281Z,99531.66
2022-12-22T05:35:29.422Z,99527.53
2022-12-22T05:36:03.740Z,99523.88
2022-12-22T05:36:44.219Z,99532.78
2022-12-22T05:37:18.391Z,99530.84
2022-12-22T05:37:52.188Z,99528.88
2022-12-22T05:38:33.225Z,99533.66
2022-12-22T05:39:07.331Z,99524.97
2022-12-22T05:39:42.029Z,99520.59
2022-12-22T05:40:22.218Z,99529.63
2022-12-22T05:41:03.288Z,99522.72
2022-12-22T05:41:37.899Z,99528.44
2022-12-22T05:42:18.188Z,99534.03
2022-12-22T05:42:52.283Z,99526.97
2022-12-22T05:43:25.882Z,99524.78
2022-12-22T05:44:07.199Z,99522.81
2022-12-22T05:44:41.307Z,99520.28
2022-12-22T05:45:20.817Z,99515.75
2022-12-22T05:46:02.231Z,99511.13
2022-12-22T05:46:36.344Z,99511.72
2022-12-22T05:47:09.978Z,99512.44
2022-12-22T05:47:53.202Z,99500.78
2022-12-22T05:48:31.002Z,99495.53
2022-12-22T05:49:09.885Z,99499.47
2022-12-22T05:49:50.196Z,99508.69
2022-12-22T05:50:28.305Z,99505.28
2022-12-22T05:51:01.998Z,99502.13
2022-12-22T05:51:42.264Z,99501.63
2022-12-22T05:52:16.294Z,99498.69
2022-12-22T05:52:50.312Z,99498.94
2022-12-22T05:53:30.184Z,99495.63
2022-12-22T05:54:04.253Z,99498.31
2022-12-22T05:54:37.897Z,99486.97
2022-12-22T05:55:20.170Z,99496.97
2022-12-22T05:55:54.464Z,99476.72
2022-12-22T05:56:28.141Z,99496.22
2022-12-22T05:57:09.219Z,99492.09
2022-12-22T05:57:43.589Z,99487.22
2022-12-22T05:58:18.325Z,99496.84
2022-12-22T05:58:59.168Z,99470.66
2022-12-22T05:59:33.286Z,99490.16
2022-12-22T06:00:10.812Z,99495.97
2022-12-22T06:00:51.155Z,99483.19
2022-12-22T06:01:25.321Z,99487.69
2022-12-22T06:01:58.922Z,99489.28
2022-12-22T06:02:40.286Z,99469.13
2022-12-22T06:03:14.466Z,99481.34
2022-12-22T06:03:50.345Z,99492.81
2022-12-22T06:04:32.209Z,99488.72
2022-12-22T06:05:06.227Z,99497.41
2022-12-22T06:05:40.070Z,99497.91
2022-12-22T06:06:21.164Z,99501.94
2022-12-22T06:06:55.288Z,99497.41
2022-12-22T06:07:29.877Z,99479.75
2022-12-22T06:08:11.184Z,99488.38
2022-12-22T06:08:45.278Z,99488.84
2022-12-22T06:09:18.875Z,99490.56
2022-12-22T06:10:00.180Z,99487.31
2022-12-22T06:10:34.343Z,99501.06
2022-12-22T06:11:08.069Z,99500.81
2022-12-22T06:11:49.179Z,99492.03
2022-12-22T06:12:23.383Z,99487.88
2022-12-22T06:12:56.847Z,99483.13
2022-12-22T06:13:38.162Z,99507.13
2022-12-22T06:14:12.209Z,99492.78
2022-12-22T06:14:45.962Z,99492.16
2022-12-22T06:15:26.170Z,99488.13
2022-12-22T06:16:00.329Z,99491.81
2022-12-22T06:16:33.943Z,99493.75
2022-12-22T06:17:15.160Z,99494.72
2022-12-22T06:17:49.219Z,99493.19
2022-12-22T06:18:23.947Z,99489.88
2022-12-22T06:19:04.165Z,99489.03
2022-12-22T06:19:38.232Z,99484.88
2022-12-22T06:20:13.837Z,99494.75
2022-12-22T06:20:57.198Z,99490.00
2022-12-22T06:21:32.252Z,99489.16
2022-12-22T06:22:06.052Z,99492.19
2022-12-22T06:22:47.161Z,99489.41
2022-12-22T06:23:22.264Z,99469.38
2022-12-22T06:23:56.309Z,99491.91
2022-12-22T06:24:36.199Z,99477.19
2022-12-22T06:25:17.250Z,99482.81
2022-12-22T06:26:00.504Z,99485.66
2022-12-22T06:26:40.143Z,99480.50
2022-12-22T06:27:14.289Z,99487.19
2022-12-22T06:27:48.844Z,99482.09
2022-12-22T06:28:30.169Z,99484.72
2022-12-22T06:29:04.230Z,99487.91
2022-12-22T06:29:44.176Z,99477.47
2022-12-22T06:30:30.941Z,99467.06
2022-12-22T06:31:13.253Z,99480.69
2022-12-22T06:31:53.256Z,99468.41
2022-12-22T06:32:35.143Z,99486.47
2022-12-22T06:33:16.231Z,99489.88
2022-12-22T06:33:50.069Z,99472.09
2022-12-22T06:34:31.161Z,99485.66
2022-12-22T06:35:12.175Z,99485.16
2022-12-22T06:35:48.668Z,99485.50
2022-12-22T06:36:38.140Z,99480.72
2022-12-22T06:37:11.995Z,99481.22
2022-12-22T06:37:59.138Z,99473.31
2022-12-22T06:38:33.102Z,99485.75
2022-12-22T06:39:21.127Z,99485.25
2022-12-22T06:39:54.829Z,99482.72
2022-12-22T06:40:35.126Z,99469.06
2022-12-22T06:41:09.370Z,99490.25
2022-12-22T06:42:02.733Z,99491.94
2022-12-22T06:43:08.446Z,99483.81
2022-12-22T06:43:43.193Z,99472.59
2022-12-22T06:44:16.844Z,99491.59
2022-12-22T06:44:59.131Z,99486.72
2022-12-22T06:45:33.191Z,99496.47
2022-12-22T06:46:13.168Z,99485.63
2022-12-22T06:46:53.255Z,99475.03
2022-12-22T06:47:33.155Z,99483.84
2022-12-22T06:48:15.259Z,99485.25
2022-12-22T06:48:55.145Z,99486.75
2022-12-22T06:49:35.183Z,99477.34
2022-12-22T06:50:16.118Z,99483.19
2022-12-22T06:50:57.231Z,99475.03
2022-12-22T06:51:37.164Z,99481.22
2022-12-22T06:52:18.260Z,99493.56
2022-12-22T06:52:59.123Z,99489.66
2022-12-22T06:53:39.174Z,99492.19
2022-12-22T06:54:24.037Z,99490.03
2022-12-22T06:55:06.224Z,99495.13
2022-12-22T06:55:47.148Z,99489.19
2022-12-22T06:56:27.195Z,99492.81
2022-12-22T06:57:08.177Z,99496.47
2022-12-22T06:57:48.232Z,99493.28
2022-12-22T06:58:29.154Z,99490.50
2022-12-22T06:59:10.176Z,99490.34
2022-12-22T06:59:57.068Z,99497.44
2022-12-22T07:00:38.505Z,99491.56
2022-12-22T07:01:20.165Z,99489.19
2022-12-22T07:02:55.278Z,99477.84
2022-12-22T07:03:35.296Z,99472.47
2022-12-22T07:04:16.156Z,99473.31
2022-12-22T07:04:56.173Z,99484.75
2022-12-22T07:05:38.088Z,99482.00
2022-12-22T07:06:21.231Z,99483.31
2022-12-22T07:07:01.123Z,99478.69
2022-12-22T07:07:42.255Z,99481.88
2022-12-22T07:08:22.198Z,99472.69
2022-12-22T07:09:02.203Z,99482.59
2022-12-22T07:09:42.133Z,99475.41
2022-12-22T07:10:43.187Z,99473.56
2022-12-22T07:11:24.107Z,99478.34
2022-12-22T07:12:04.241Z,99473.94
2022-12-22T07:12:45.089Z,99481.38
2022-12-22T07:13:34.240Z,99474.47
2022-12-22T07:14:08.162Z,99487.25
2022-12-22T07:14:56.119Z,99474.69
2022-12-22T07:15:30.460Z,99475.56
2022-12-22T07:16:21.168Z,99461.66
2022-12-22T07:16:54.801Z,99465.31
2022-12-22T07:17:42.112Z,99464.34
2022-12-22T07:18:15.881Z,99462.38
2022-12-22T07:18:57.106Z,99477.00
2022-12-22T07:19:31.189Z,99476.88
2022-12-22T07:20:05.401Z,99458.59
2022-12-22T07:20:45.108Z,99462.38
2022-12-22T07:21:21.228Z,99465.41
2022-12-22T07:21:55.099Z,99475.06
2022-12-22T07:22:35.097Z,99463.47
2022-12-22T07:23:09.206Z,99457.88
2022-12-22T07:23:43.450Z,99460.28
2022-12-22T07:24:29.108Z,99468.59
2022-12-22T07:25:03.238Z,99464.94
2022-12-22T07:25:37.321Z,99461.88
2022-12-22T07:26:18.243Z,99458.59
2022-12-22T07:26:52.199Z,99452.38
2022-12-22T07:27:26.218Z,99460.31
2022-12-22T07:28:07.094Z,99453.38
2022-12-22T07:28:42.288Z,99469.19
2022-12-22T07:29:17.612Z,99457.50
2022-12-22T07:29:57.119Z,99451.19
2022-12-22T07:30:31.432Z,99461.06
2022-12-22T07:31:06.195Z,99449.25
2022-12-22T07:31:47.443Z,99453.13
2022-12-22T07:32:21.271Z,99451.19
2022-12-22T07:32:54.881Z,99456.56
2022-12-22T07:33:36.110Z,99437.53
2022-12-22T07:34:10.179Z,99452.41
2022-12-22T07:34:43.981Z,99447.16
2022-12-22T07:35:25.097Z,99450.81
2022-12-22T07:36:19.608Z,99450.53
2022-12-22T07:36:54.370Z,99452.16
2022-12-22T07:37:34.088Z,99436.31
2022-12-22T07:38:08.452Z,99434.59
2022-12-22T07:38:46.030Z,99446.53
2022-12-22T07:39:27.070Z,99442.41
2022-12-22T07:40:01.291Z,99440.19
2022-12-22T07:40:44.955Z,99437.53
2022-12-22T07:41:47.042Z,99437.03
2022-12-22T07:42:46.077Z,99437.78
2022-12-22T07:43:27.179Z,99452.38
2022-12-22T07:44:08.084Z,99440.69
2022-12-22T07:44:49.221Z,99439.00
2022-12-22T07:45:30.067Z,99441.91
2022-12-22T07:46:13.138Z,99441.91
2022-12-22T07:46:47.374Z,99441.56
2022-12-22T07:47:21.064Z,99435.63
2022-12-22T07:48:29.071Z,99439.88
2022-12-22T07:49:35.468Z,99425.13
2022-12-22T07:50:25.485Z,99427.56
2022-12-22T07:51:10.065Z,99432.47
2022-12-22T07:51:53.075Z,99421.00
2022-12-22T07:52:26.891Z,99434.16
2022-12-22T07:53:17.069Z,99438.78
2022-12-22T07:53:50.953Z,99434.16
2022-12-22T07:54:42.264Z,99432.81
2022-12-22T07:55:16.896Z,99438.53
2022-12-22T07:56:04.065Z,99441.72
2022-12-22T07:56:38.697Z,99435.59
2022-12-22T07:57:19.105Z,99447.22
2022-12-22T07:57:53.114Z,99442.44
2022-12-22T07:58:26.800Z,99442.31
2022-12-22T07:59:08.065Z,99441.94
2022-12-22T07:59:42.158Z,99435.50
2022-12-22T08:00:17.200Z,99437.56
2022-12-22T08:00:57.065Z,99441.81
2022-12-22T08:01:31.149Z,99437.66
2022-12-22T08:02:04.940Z,99431.56
2022-12-22T08:02:46.164Z,99420.97
2022-12-22T08:03:20.279Z,99424.63
2022-12-22T08:03:53.926Z,99431.69
2022-12-22T08:04:34.083Z,99425.34
2022-12-22T08:05:08.212Z,99419.50
2022-12-22T08:05:41.807Z,99418.78
2022-12-22T08:06:22.056Z,99431.47
2022-12-22T08:06:56.159Z,99426.09
2022-12-22T08:07:29.909Z,99427.28
2022-12-22T08:08:11.085Z,99417.03
2022-12-22T08:08:45.187Z,99428.00
2022-12-22T08:09:21.718Z,99423.47
2022-12-22T08:10:02.125Z,99420.66
2022-12-22T08:10:36.147Z,99426.03
2022-12-22T08:11:09.914Z,99428.97
2022-12-22T08:11:51.042Z,99421.91
2022-12-22T08:12:25.164Z,99400.59
2022-12-22T08:12:58.943Z,99418.75
2022-12-22T08:13:41.071Z,99423.59
2022-12-22T08:14:15.307Z,99419.47
2022-12-22T08:14:49.807Z,99429.44
2022-12-22T08:15:30.066Z,99414.56
2022-12-22T08:16:13.271Z,99413.50
2022-12-22T08:16:47.811Z,99411.19
2022-12-22T08:17:28.038Z,99410.31
2022-12-22T08:18:03.095Z,99409.56
2022-12-22T08:18:37.593Z,99401.16
2022-12-22T08:19:18.076Z,99404.31
2022-12-22T08:19:52.107Z,99394.59
2022-12-22T08:20:25.945Z,99408.00
2022-12-22T08:21:07.020Z,99403.38
2022-12-22T08:21:44.221Z,99406.00
2022-12-22T08:22:24.495Z,99408.47
2022-12-22T08:23:05.020Z,99407.13
2022-12-22T08:23:39.156Z,99397.00
2022-12-22T08:24:12.800Z,99406.28
2022-12-22T08:24:53.026Z,99407.22
2022-12-22T08:25:27.140Z,99398.94
2022-12-22T08:26:25.282Z,99395.78
2022-12-22T08:27:10.031Z,99382.03
2022-12-22T08:27:51.162Z,99404.31
2022-12-22T08:28:24.713Z,99391.38
2022-12-22T08:29:41.032Z,99397.09
2022-12-22T08:30:23.032Z,99392.75
2022-12-22T08:30:56.723Z,99380.66
2022-12-22T08:31:45.146Z,99400.41
2022-12-22T08:32:18.873Z,99392.84
2022-12-22T08:33:06.040Z,99380.38
2022-12-22T08:33:39.832Z,99392.53
2022-12-22T08:34:29.019Z,99390.81
2022-12-22T08:35:07.033Z,99384.28
2022-12-22T08:35:48.061Z,99392.56
2022-12-22T08:36:22.079Z,99379.28
2022-12-22T08:36:58.473Z,99382.44
2022-12-22T08:37:42.024Z,99389.13
2022-12-22T08:38:18.180Z,99392.06
2022-12-22T08:38:52.073Z,99386.34
2022-12-22T08:39:35.029Z,99380.66
2022-12-22T08:40:12.099Z,99375.28
2022-12-22T08:40:45.905Z,99387.19
2022-12-22T08:41:46.054Z,99378.78
2022-12-22T08:42:23.099Z,99379.63
2022-12-22T08:43:08.419Z,99381.97
2022-12-22T08:43:48.984Z,99372.22
2022-12-22T08:44:30.270Z,99374.53
2022-12-22T08:45:05.445Z,99372.56
2022-12-22T08:45:45.015Z,99368.56
2022-12-22T08:46:19.142Z,99366.34
2022-12-22T08:47:01.086Z,99370.91
2022-12-22T08:47:42.702Z,99371.44
2022-12-22T08:48:23.007Z,99370.19
2022-12-22T08:49:04.054Z,99371.69
2022-12-22T08:49:44.048Z,99366.34
2022-12-22T08:50:24.074Z,99367.56
2022-12-22T08:51:04.006Z,99366.75
2022-12-22T08:51:44.076Z,99351.50
2022-12-22T08:52:24.057Z,99356.97
2022-12-22T08:53:45.283Z,99370.84
2022-12-22T08:54:15.989Z,99364.28
2022-12-22T08:54:56.074Z,99363.28
2022-12-22T08:55:36.017Z,99361.03
2022-12-22T08:56:16.079Z,99355.78
2022-12-22T08:56:55.985Z,99358.31
2022-12-22T08:57:43.063Z,99349.34
2022-12-22T08:58:16.699Z,99349.66
2022-12-22T08:59:04.000Z,99341.63
2022-12-22T08:59:37.731Z,99331.72
2022-12-22T09:00:27.015Z,99344.91
2022-12-22T09:01:00.731Z,99339.56
2022-12-22T09:01:54.030Z,99350.28
2022-12-22T09:02:27.759Z,99343.22
2022-12-22T09:03:09.117Z,99341.81
2022-12-22T09:03:43.025Z,99343.56
2022-12-22T09:04:19.413Z,99347.59
2022-12-22T09:04:58.992Z,99349.03
2022-12-22T09:05:33.064Z,99351.00
2022-12-22T09:06:07.050Z,99342.81
2022-12-22T09:06:47.989Z,99333.22